Datos de la estación

Estación Meteorológica de Mancha Real

Provincia: Jaén
Código de Estación: 7
Primer día registrado: 23-08-2000
Último día registrado: 25-05-2022

Datos Localización

Latitud: 37º 54' 59'' N
Longitud: 03º 35' 47'' W
Altitud: 407

Coordenadas UTM

X: 447571
Y: 4196710

Fecha de Medida
25-05-2022
Día Juliano
145
Temp. Máxima (ºC)
26.8
Velocidad Viento Media (m/s)
1.9
Hora Temp. Máxima
15:58
Dirección Viento Media (º)
32.4
Temp. Mínima (ºC)
13.5
Radiación (MJ/m2 d)
30.5
Hora Temp. Mínima
5:02
Precipitación (mm)
0.0
Temp. Media (ºC)
20.1
ETo (mm/dia)
6.6
Humedad Relativa Máxima (%)
42.9
Humedad Relativa Mínima (%)
14.2
Precipitación Acumulada (mm)
222.8
Humedad Relativa Media (%)
27.6
ETo Acumulada (mm)
786.5
Temperatura Máxima Humedad Máxima Dirección del Viento
Temperatura Mínima Humedad Mínima Precipitación
Temperatura Media Humedad Media ETo
HH:MM Temperatura Máxima Radiación Marcar Todas
HH:MM Temperatura Mínima Velocidad del Viento
 
Fecha Día Juliano Temp. Máxima (ºC) Hora Temp Máxima Temp. Mínima (ºC) Hora Temp Mínima Temp. Media (ºC) Humedad Relativa Máxima (%) Humedad Relativa Media (%) Humedad Relativa Mínima (%) Velocidad Viento Media (m/s) Dirección Viento Media (º) Radiación (MJ/m2 d) Precipitación (mm) ETo (mm/dia)
25-05-2022 145 26.8 15:58 13.5 5:02 20.1 42.9 27.6 14.2 1.9 32.4 30.5 0.0 6.6
24-05-2022 144 28.0 14:02 17.0 --:-- 22.3 62.3 36.5 15.7 3.5 263.0 26.9 0.0 7.7
23-05-2022 143 30.7 15:10 16.5 5:24 23.6 73.9 45.5 20.9 2.4 263.2 29.3 0.0 7.2
22-05-2022 142 30.4 14:14 18.1 5:52 23.4 76.1 51.2 28.6 2.8 274.8 25.0 0.0 6.8
21-05-2022 141 40.4 13:42 23.9 23:56 32.2 51.8 17.6 6.9 2.3 97.8 19.5 0.0 8.1
20-05-2022 140 40.7 13:42 21.3 4:36 32.0 35.8 16.8 7.2 2.0 105.1 25.3 0.0 8.3
19-05-2022 139 40.1 14:34 19.0 5:18 29.5 50.3 25.7 5.8 1.7 219.1 27.9 0.0 8.1
18-05-2022 138 36.7 15:20 17.3 5:20 27.5 51.6 31.1 16.2 1.7 262.6 28.9 0.0 7.5
17-05-2022 137 33.7 15:40 14.9 5:24 24.8 61.6 32.0 12.8 1.5 223.7 29.5 0.0 6.9
16-05-2022 136 30.0 15:40 13.9 5:22 21.9 82.5 48.8 17.2 1.8 272.8 29.2 0.0 6.5
15-05-2022 135 28.0 16:04 15.4 4:28 20.7 83.5 58.0 31.4 2.5 277.2 24.0 0.0 5.9
14-05-2022 134 34.4 14:08 18.3 4:24 26.0 60.7 36.4 14.3 2.2 305.5 25.4 0.0 7.5
13-05-2022 133 33.3 13:54 16.1 5:30 25.1 57.4 35.3 16.9 1.7 125.4 25.7 0.0 6.6
12-05-2022 132 31.9 15:34 14.9 5:22 23.8 50.0 29.9 14.8 1.7 86.6 26.0 0.0 6.5
11-05-2022 131 32.7 13:44 15.7 4:12 24.2 56.0 28.8 10.2 1.5 73.7 29.0 0.0 6.7
10-05-2022 130 31.5 16:40 15.3 3:22 23.4 55.1 35.1 16.2 1.4 78.6 28.6 0.0 6.3
09-05-2022 129 31.0 16:04 14.2 3:32 23.0 60.3 34.6 15.3 1.4 66.3 28.7 0.0 6.2
08-05-2022 128 29.5 16:40 12.9 4:52 21.7 61.0 37.1 14.6 1.5 130.6 28.8 0.0 6.1
07-05-2022 127 28.2 15:00 11.3 5:38 20.3 58.2 33.8 15.3 1.5 75.6 29.3 0.0 6.0
06-05-2022 126 27.1 15:54 13.5 6:04 19.9 79.9 44.8 19.8 1.3 353.8 28.7 0.0 5.5
05-05-2022 125 24.3 16:58 10.3 5:36 17.5 97.1 60.4 33.5 1.3 230.4 26.7 0.0 4.7
04-05-2022 124 19.7 12:18 11.7 4:56 14.1 93.2 80.7 52.7 0.7 100.8 10.6 8.0 2.1
03-05-2022 123 19.1 14:36 11.9 23:26 14.4 89.0 73.3 48.1 1.1 6.0 11.9 0.0 2.5
02-05-2022 122 22.3 14:08 13.1 5:38 17.5 80.4 50.3 24.7 3.3 258.6 27.2 0.0 5.8
01-05-2022 121 27.6 13:46 14.1 3:56 20.7 63.6 42.8 24.9 2.2 265.4 26.0 0.0 6.0
30-04-2022 120 25.6 16:02 9.7 5:06 18.6 79.7 45.7 22.9 1.5 120.6 24.7 0.0 4.9
29-04-2022 119 24.9 15:28 9.1 6:16 16.9 83.9 49.2 19.6 1.4 86.5 26.3 0.0 4.9
28-04-2022 118 20.0 14:46 8.4 4:44 13.2 92.2 72.8 47.6 1.2 92.0 16.4 2.8 3.0
27-04-2022 117 22.1 13:28 10.9 23:04 15.0 85.1 64.6 36.3 1.5 91.1 17.9 0.0 3.7
26-04-2022 116 23.5 14:02 11.3 5:30 17.0 81.0 50.9 29.6 1.8 168.4 20.9 0.2 4.4
25-04-2022 115 23.9 13:40 7.8 4:36 16.3 83.9 55.2 29.7 1.9 189.3 27.6 0.0 5.1
24-04-2022 114 19.7 15:52 7.9 2:24 13.7 90.8 62.6 38.2 1.7 218.9 24.4 0.0 4.0
23-04-2022 113 15.2 14:12 7.4 1:04 10.8 92.3 67.5 42.2 5.6 244.7 20.5 1.4 3.7
22-04-2022 112 17.1 13:44 8.2 --:-- 13.0 94.9 64.4 42.4 3.9 243.2 10.8 6.8 3.1
21-04-2022 111 18.4 15:28 6.3 5:28 12.5 78.7 54.9 33.6 3.4 247.8 26.5 0.0 4.7
20-04-2022 110 13.4 --:-- 5.8 5:46 9.2 89.6 72.6 55.8 4.0 251.1 9.2 4.6 2.3
19-04-2022 109 20.5 14:24 11.7 5:52 15.6 80.9 60.1 30.1 3.5 265.5 19.4 0.0 4.7
18-04-2022 108 27.6 15:00 14.9 5:20 21.0 62.0 45.5 28.0 2.6 226.8 24.1 0.0 6.0
17-04-2022 107 28.4 16:08 13.1 4:36 21.1 68.3 43.6 24.9 1.4 184.3 25.5 0.0 5.2
16-04-2022 106 27.8 15:08 11.5 5:48 20.1 74.6 46.6 26.6 1.4 239.4 25.2 0.0 5.0
15-04-2022 105 25.3 14:18 11.1 5:14 18.4 87.1 49.2 24.4 1.3 85.6 24.4 0.0 4.5
14-04-2022 104 21.6 14:26 9.9 5:08 15.7 87.8 61.5 41.2 1.3 344.7 17.9 0.0 3.3
13-04-2022 103 19.2 15:48 9.3 5:36 13.5 99.8 74.1 44.8 1.8 266.2 15.8 0.0 3.0
12-04-2022 102 17.8 14:28 9.4 3:34 12.1 99.8 79.2 50.4 1.8 284.9 15.6 1.2 2.7
11-04-2022 101 22.6 14:58 11.2 23:54 16.6 92.1 51.8 36.5 2.7 281.7 20.6 0.0 4.3
10-04-2022 100 28.1 14:50 9.7 5:48 18.6 89.8 48.1 10.0 1.7 130.2 24.1 0.0 5.3
09-04-2022 99 22.2 15:22 8.4 5:32 15.2 91.3 65.0 38.7 1.4 261.8 23.8 0.0 3.9
08-04-2022 98 19.2 15:36 8.0 5:04 13.4 88.5 64.9 37.3 1.9 253.5 21.7 0.0 3.7
07-04-2022 97 18.9 15:30 5.4 5:24 12.1 96.3 67.6 41.8 1.7 215.8 23.8 0.0 3.5
06-04-2022 96 13.3 16:24 2.5 2:10 7.1 99.7 82.6 56.2 1.4 174.3 13.5 0.2 2.0
05-04-2022 95 7.6 2:10 3.5 23:30 5.6 99.8 92.7 60.4 1.4 70.4 4.1 15.2 1.0
04-04-2022 94 14.4 12:42 6.6 6:28 9.1 82.7 50.9 34.2 2.6 85.8 14.8 0.2 3.0
03-04-2022 93 15.2 15:22 1.4 5:24 9.1 69.9 39.0 18.4 1.7 81.3 21.8 0.0 3.4
02-04-2022 92 13.5 14:10 3.1 5:56 8.5 71.1 40.8 20.9 1.6 67.1 23.4 0.2 3.3
01-04-2022 91 13.9 12:42 7.3 5:50 9.3 90.9 75.3 40.6 2.5 212.1 10.8 1.0 2.4
31-03-2022 90 15.3 14:00 7.9 6:02 10.8 92.5 72.1 43.5 4.0 250.8 16.9 1.6 3.2
30-03-2022 89 15.3 13:50 9.5 22:20 11.4 99.8 89.8 61.3 2.3 242.8 8.2 10.2 1.8
29-03-2022 88 16.9 16:12 9.7 6:30 12.9 99.8 81.1 57.6 1.5 271.6 10.2 5.0 2.0
28-03-2022 87 20.3 12:38 8.8 6:20 14.5 81.3 57.4 36.3 1.4 123.1 14.1 0.0 2.9
27-03-2022 86 18.8 14:18 6.6 6:58 12.9 85.7 61.4 41.5 1.9 115.3 19.2 0.0 3.2
26-03-2022 85 16.4 15:02 7.3 6:18 11.1 99.8 80.4 54.7 1.0 78.8 9.4 0.0 1.7
25-03-2022 84 14.0 1:00 7.6 23:50 11.2 98.2 71.3 51.0 2.3 92.8 3.8 1.6 1.6
24-03-2022 83 15.4 14:34 10.2 1:28 13.8 98.1 59.3 46.3 3.6 107.4 4.1 1.4 2.1
23-03-2022 82 15.2 14:58 9.8 5:52 12.7 88.5 66.3 52.3 2.4 97.9 3.9 1.8 1.8
22-03-2022 81 18.8 13:16 8.0 5:32 12.6 99.8 77.9 47.6 1.8 119.1 14.3 3.6 2.6
21-03-2022 80 17.2 11:04 8.4 5:16 11.9 99.1 79.3 51.2 1.6 126.2 11.5 2.4 2.1
20-03-2022 79 18.9 12:36 9.3 5:58 13.9 99.8 53.3 38.5 3.6 112.5 19.0 6.0 3.6
19-03-2022 78 17.5 13:00 7.1 5:34 12.2 79.1 58.8 39.6 2.0 91.0 15.0 0.0 2.9
18-03-2022 77 17.2 13:58 7.2 6:46 11.4 83.8 66.2 43.5 1.2 70.3 15.6 0.0 2.5
17-03-2022 76 15.8 15:22 9.1 1:34 11.7 99.8 77.5 52.4 1.8 23.9 10.3 1.2 2.0
16-03-2022 75 18.3 1:00 9.3 23:50 13.4 99.8 67.3 30.3 1.6 83.3 3.8 2.4 2.0
15-03-2022 74 19.0 12:56 9.4 5:10 15.2 85.0 49.1 28.0 2.8 111.7 3.2 0.2 2.8
14-03-2022 73 13.5 9:54 8.4 13:34 10.4 99.8 79.0 58.6 2.5 109.8 6.7 4.6 1.6
13-03-2022 72 15.9 13:34 7.0 7:16 11.4 99.8 75.0 45.4 1.0 159.8 16.3 6.4 2.2
12-03-2022 71 14.6 15:18 6.5 6:40 10.2 99.8 78.1 46.1 2.2 255.7 16.8 0.0 2.4
11-03-2022 70 13.7 14:16 8.4 5:14 10.4 99.8 86.0 59.5 1.5 260.0 6.0 12.2 1.4
10-03-2022 69 19.0 16:18 5.8 6:58 12.3 77.8 54.3 33.7 1.9 149.8 18.5 0.0 3.2
09-03-2022 68 18.8 14:58 3.5 6:52 10.9 88.2 55.8 25.5 1.5 101.9 18.9 0.0 3.0
08-03-2022 67 14.1 16:22 6.1 23:52 9.7 76.2 65.6 45.8 2.2 238.8 11.9 0.0 2.3
07-03-2022 66 13.5 13:28 6.6 14:50 9.2 99.8 78.4 51.5 1.4 110.9 10.0 2.0 1.6
06-03-2022 65 16.3 14:38 6.4 00:04 9.9 85.4 66.2 36.6 1.2 92.2 16.7 0.0 2.4
05-03-2022 64 13.9 13:16 4.6 7:00 8.9 89.8 67.6 41.4 1.5 160.6 14.2 0.0 2.1
04-03-2022 63 10.0 12:38 5.6 3:34 7.8 99.8 82.2 61.8 1.9 229.9 2.2 1.6 1.0
03-03-2022 62 16.6 14:56 6.3 23:36 9.6 99.8 72.0 37.8 2.1 227.9 7.8 6.0 2.2
02-03-2022 61 18.9 13:54 6.4 6:54 12.7 78.1 55.3 32.2 1.8 194.0 17.7 0.0 3.0
01-03-2022 60 19.1 15:16 5.5 4:50 11.9 86.9 60.0 34.4 1.5 147.7 17.6 0.0 2.7
28-02-2022 59 19.1 14:22 7.1 7:42 12.6 84.3 58.1 30.7 1.1 139.5 16.8 0.0 2.5
27-02-2022 58 17.2 15:14 8.0 00:46 11.6 88.6 61.4 37.7 0.8 135.3 13.4 0.0 1.9
26-02-2022 57 16.6 14:36 8.1 7:12 11.3 99.8 69.5 49.3 1.5 123.4 8.0 2.4 1.7
25-02-2022 56 18.1 12:58 8.6 23:20 12.7 99.8 75.8 41.0 1.2 130.0 9.8 5.4 1.9
24-02-2022 55 20.0 14:12 6.6 7:06 12.8 93.0 42.7 22.3 1.8 107.7 10.5 1.2 2.7
23-02-2022 54 23.5 15:08 7.8 4:12 14.4 42.3 26.0 9.4 1.7 118.7 14.3 0.0 3.7
22-02-2022 53 22.2 15:44 4.0 6:16 12.8 73.8 37.7 11.6 1.1 94.4 17.5 0.0 2.8
21-02-2022 52 20.5 14:36 3.3 7:02 11.8 85.5 49.8 25.8 1.3 86.1 16.8 0.0 2.6
20-02-2022 51 18.1 12:58 6.7 4:42 11.6 93.7 61.9 24.9 1.3 81.5 15.9 0.0 2.4
19-02-2022 50 15.8 15:08 8.4 3:34 11.3 94.4 78.3 58.3 1.2 259.5 7.6 0.0 1.4
18-02-2022 49 21.3 14:56 6.1 6:14 13.5 79.0 49.8 23.9 1.7 226.4 16.1 0.0 3.0
17-02-2022 48 21.7 16:46 3.5 7:22 12.1 90.6 57.9 30.7 1.1 115.2 16.1 0.0 2.4
16-02-2022 47 16.1 15:48 0.7 7:44 9.1 82.2 51.1 29.3 1.4 191.9 15.5 0.0 2.1
15-02-2022 46 15.4 16:36 1.9 6:32 8.3 80.6 51.5 19.5 1.5 151.2 15.9 0.0 2.3
14-02-2022 45 14.6 15:16 6.8 23:26 10.6 99.8 61.9 32.6 3.4 254.4 13.7 1.2 2.5
13-02-2022 44 14.8 16:08 5.9 6:54 10.4 84.6 68.4 55.2 1.7 184.0 11.0 0.2 1.7
12-02-2022 43 17.3 15:22 5.2 6:26 11.0 84.4 55.9 40.2 1.4 141.0 12.8 0.0 2.0
11-02-2022 42 18.8 16:08 5.0 6:56 11.4 75.5 49.0 26.8 1.3 129.8 13.3 0.0 2.2
10-02-2022 41 18.8 16:46 2.9 6:08 10.4 82.0 51.2 27.2 1.4 118.8 14.8 0.0 2.3
09-02-2022 40 19.1 14:24 4.2 7:12 10.7 80.4 49.8 19.6 1.3 115.9 14.9 0.0 2.3
08-02-2022 39 21.7 14:46 5.2 2:50 12.4 64.1 40.8 15.3 1.2 156.8 14.8 0.0 2.5
07-02-2022 38 19.2 15:20 3.5 6:26 10.9 97.0 55.8 19.6 1.4 107.4 14.5 0.0 2.3
06-02-2022 37 19.0 14:48 8.9 7:50 12.7 78.2 60.0 36.9 0.7 193.7 13.0 0.0 1.6
05-02-2022 36 16.7 16:06 7.3 6:42 11.5 90.4 64.8 44.9 1.0 162.1 11.5 0.2 1.5
04-02-2022 35 14.4 14:16 3.7 6:28 9.5 76.7 58.2 41.5 1.1 131.3 7.3 0.0 1.4
03-02-2022 34 18.6 14:24 4.2 5:00 11.0 71.6 46.8 27.6 1.2 110.2 11.8 0.0 2.0
02-02-2022 33 21.3 15:40 3.3 3:26 10.9 71.7 46.0 22.3 1.3 108.3 14.1 0.0 2.4
01-02-2022 32 14.5 15:30 3.5 7:02 8.9 58.4 44.6 32.4 1.4 95.9 13.7 0.0 1.8
31-01-2022 31 18.3 15:06 3.0 7:22 9.9 54.9 34.4 17.2 1.3 132.2 12.4 0.0 2.2
30-01-2022 30 19.3 14:46 3.9 5:40 10.7 44.0 26.8 11.4 1.4 136.6 11.9 0.0 2.4
29-01-2022 29 19.2 14:44 4.3 7:28 12.6 48.1 19.4 5.0 2.5 115.4 13.4 0.0 3.4
28-01-2022 28 17.5 14:40 4.9 2:54 11.1 67.6 43.7 28.5 2.2 106.6 12.7 0.0 2.5
27-01-2022 27 14.8 14:56 8.9 4:02 11.5 62.4 46.8 37.0 3.2 109.9 7.2 0.0 2.6
26-01-2022 26 13.8 13:44 5.9 3:46 10.0 71.9 58.3 48.8 2.6 115.2 5.3 0.0 1.9
25-01-2022 25 13.9 14:16 3.1 5:42 8.8 81.1 58.1 38.1 2.8 114.7 11.9 0.0 2.1
24-01-2022 24 14.3 15:20 2.7 5:02 8.0 80.6 58.4 35.4 1.4 123.5 11.7 0.0 1.6
23-01-2022 23 15.7 13:46 1.7 5:28 8.0 84.4 59.9 30.2 1.3 113.8 11.9 0.0 1.6
22-01-2022 22 15.1 15:20 0.6 7:22 6.9 82.0 60.2 31.9 1.2 141.6 12.3 0.0 1.5
21-01-2022 21 12.7 15:08 0.0 5:40 5.5 92.1 62.6 33.8 1.3 95.2 12.0 0.0 1.4
20-01-2022 20 13.9 14:52 -0.6 4:20 5.8 79.4 55.7 31.5 1.2 118.0 12.0 0.0 1.4
19-01-2022 19 13.1 14:52 0.1 7:50 5.6 73.5 52.3 28.0 1.4 139.2 12.1 0.0 1.6
18-01-2022 18 14.1 14:22 0.7 7:36 6.2 80.8 56.8 27.4 1.5 124.3 12.1 0.0 1.6
17-01-2022 17 13.1 14:36 -0.3 6:14 5.8 84.1 60.1 36.3 1.1 105.4 11.8 0.0 1.2
16-01-2022 16 12.9 14:32 0.3 5:48 5.4 80.2 62.1 34.8 1.2 114.2 11.5 0.0 1.3
15-01-2022 15 12.7 13:54 1.2 3:30 5.8 84.3 63.8 34.2 1.5 123.2 11.5 0.0 1.4
14-01-2022 14 12.8 14:34 0.1 7:18 6.1 85.7 61.6 38.8 1.4 122.2 11.3 0.0 1.3
13-01-2022 13 13.4 13:18 2.7 7:46 8.2 73.4 51.0 33.2 2.3 122.9 11.1 0.0 1.9
12-01-2022 12 15.6 16:04 4.2 6:04 9.2 90.5 61.2 34.3 1.2 102.9 11.3 0.0 1.3
11-01-2022 11 15.9 13:42 3.6 5:08 9.3 99.8 74.2 45.2 1.2 106.6 10.9 0.0 1.2
10-01-2022 10 13.7 16:06 4.5 4:36 7.9 99.7 83.6 63.6 0.9 122.0 5.9 0.0 0.8
09-01-2022 9 11.9 15:20 -1.0 7:10 5.2 96.7 74.4 54.6 1.4 202.2 10.8 0.0 1.0
08-01-2022 8 10.7 14:58 -0.6 7:30 5.0 96.9 74.4 51.0 0.9 98.5 8.7 0.0 0.8
07-01-2022 7 12.7 15:48 -0.3 4:08 5.8 89.5 69.2 48.3 1.2 73.9 10.7 0.0 1.0
06-01-2022 6 10.5 15:50 2.8 22:10 7.0 99.8 73.0 36.5 1.6 62.6 10.0 4.2 1.2
05-01-2022 5 10.0 14:10 4.6 7:22 7.3 95.7 74.5 59.5 3.1 238.2 6.0 2.4 1.2
04-01-2022 4 14.5 14:44 5.4 7:52 9.5 96.8 75.7 60.3 2.8 223.8 8.3 2.8 1.4
03-01-2022 3 20.3 14:30 3.7 6:14 11.4 76.7 53.1 27.2 1.1 108.1 10.7 0.0 1.6
02-01-2022 2 18.8 15:26 5.5 3:24 11.2 77.9 53.0 31.8 1.3 103.6 10.0 0.0 1.6
01-01-2022 1 20.9 14:18 8.2 4:54 13.1 65.7 48.8 29.9 1.7 125.2 10.8 0.0 2.2
31-12-2021 365 20.5 15:12 5.3 5:26 12.0 78.8 56.1 35.4 1.2 107.1 10.7 0.0 1.6
30-12-2021 364 19.9 14:18 8.1 6:54 12.7 82.4 55.8 36.7 1.3 113.7 10.6 0.0 1.6
29-12-2021 363 16.3 14:48 2.9 7:18 9.9 99.8 84.8 57.9 1.0 100.9 9.9 0.0 0.9
28-12-2021 362 16.2 12:04 8.6 --:-- 12.8 99.8 81.4 62.6 2.0 226.0 7.2 0.0 1.2
27-12-2021 361 17.0 15:20 12.8 --:-- 14.5 99.7 82.2 65.7 3.7 249.1 7.5 0.6 1.4
26-12-2021 360 14.5 21:14 10.5 6:50 12.6 99.8 87.5 70.3 4.2 254.0 4.2 0.4 1.2
25-12-2021 359 12.7 21:10 7.8 4:58 10.2 99.8 95.4 79.3 2.0 112.3 2.0 16.0 0.7
24-12-2021 358 12.9 13:54 8.1 23:38 10.9 99.8 96.6 71.3 1.0 126.9 2.1 7.6 0.7
23-12-2021 357 16.4 13:58 6.3 5:56 10.8 99.8 87.0 55.2 1.1 108.3 8.7 4.6 1.0
22-12-2021 356 16.0 14:06 8.0 23:52 11.8 99.8 87.0 65.4 1.3 119.1 4.6 0.2 0.9
21-12-2021 355 17.4 13:42 7.4 3:10 12.0 99.8 83.3 60.7 1.4 122.1 6.8 5.4 1.1
20-12-2021 354 14.8 14:04 5.5 8:20 9.8 84.4 67.9 48.4 1.3 110.6 6.1 0.0 1.2
19-12-2021 353 16.9 14:36 4.9 2:20 9.7 84.6 64.8 36.0 1.3 147.4 10.1 0.0 1.4
18-12-2021 352 15.2 14:04 2.5 7:38 8.6 86.1 65.0 37.6 1.5 124.8 9.5 0.0 1.4
17-12-2021 351 15.8 13:44 4.8 23:58 9.9 79.6 56.8 36.9 1.5 137.4 8.6 0.0 1.5
16-12-2021 350 15.3 13:20 4.1 4:30 10.7 78.7 54.3 38.3 3.1 118.1 10.3 0.0 2.1
15-12-2021 349 16.6 15:30 3.5 7:02 9.7 73.8 51.6 34.0 1.3 77.4 10.7 0.0 1.4
14-12-2021 348 18.4 15:34 4.7 4:14 10.4 85.1 58.1 33.6 1.1 112.9 10.5 0.0 1.4
13-12-2021 347 18.2 13:42 6.0 7:20 10.9 83.3 62.4 34.0 1.6 120.3 10.7 0.0 1.7
12-12-2021 346 18.6 14:28 5.4 6:02 10.9 99.0 68.6 40.2 1.3 109.4 10.5 0.0 1.4
11-12-2021 345 16.8 14:28 7.1 7:22 10.8 99.8 80.4 45.8 1.1 102.7 8.8 0.0 1.1
10-12-2021 344 13.0 20:24 8.8 3:36 10.8 82.5 75.3 69.9 3.9 239.2 2.5 0.0 1.4
09-12-2021 343 11.8 14:30 3.5 8:18 8.5 91.9 71.3 56.7 3.1 244.2 7.5 0.0 1.4
08-12-2021 342 12.8 14:22 6.6 23:54 10.2 99.7 68.8 38.7 5.0 250.7 7.6 1.0 2.1
07-12-2021 341 14.7 15:54 1.4 7:06 8.5 99.7 73.8 48.3 2.1 231.4 10.3 0.0 1.4
06-12-2021 340 11.4 15:34 2.5 7:14 6.8 92.1 74.5 58.1 1.3 143.5 10.3 0.0 0.9
05-12-2021 339 12.0 14:32 6.9 23:32 9.0 99.8 70.1 45.7 3.3 254.6 7.8 0.0 1.6
04-12-2021 338 13.3 15:04 -1.4 6:38 7.1 99.7 73.0 48.5 1.6 223.3 10.1 0.0 1.2
03-12-2021 337 12.3 14:00 -0.4 4:18 5.8 90.1 62.3 34.6 1.2 107.5 10.9 0.0 1.1
02-12-2021 336 11.3 13:40 3.3 23:52 8.2 90.0 68.6 44.9 2.6 243.0 5.1 0.0 1.5
01-12-2021 335 12.4 14:10 1.6 6:16 7.6 99.7 76.0 54.3 2.6 221.7 10.5 0.2 1.3
30-11-2021 334 14.3 14:26 3.3 6:18 8.2 97.6 74.6 49.2 1.3 118.9 10.5 0.0 1.1
29-11-2021 333 11.0 12:02 7.0 00:40 9.0 85.4 71.0 58.6 3.1 231.2 4.3 0.0 1.4
28-11-2021 332 8.7 14:30 0.0 8:54 4.2 95.2 67.8 47.0 2.5 237.6 10.7 0.0 1.3
27-11-2021 331 10.2 15:08 0.9 23:50 5.3 97.8 77.2 58.2 2.6 252.9 6.9 4.0 1.1
26-11-2021 330 11.7 15:46 4.1 00:12 7.5 99.8 78.7 48.2 1.3 239.2 8.7 0.0 1.0
25-11-2021 329 9.4 12:18 4.3 --:-- 6.7 99.8 93.0 82.4 1.7 280.8 4.6 0.0 0.6
24-11-2021 328 9.4 14:28 3.7 6:40 6.1 99.8 87.5 57.9 2.3 268.9 5.7 1.8 1.0
23-11-2021 327 11.0 14:00 2.9 7:30 6.8 99.7 79.6 50.2 1.6 246.9 11.0 1.0 1.1
22-11-2021 326 14.0 14:46 6.8 23:02 10.8 99.8 90.1 60.8 2.3 245.0 5.6 12.2 1.2
21-11-2021 325 13.5 12:26 10.0 3:52 11.1 99.8 95.2 73.9 0.7 137.3 4.5 1.8 0.7
20-11-2021 324 15.0 00:28 10.2 22:50 12.3 99.7 81.0 52.7 1.3 113.1 1.3 12.0 1.1
19-11-2021 323 17.6 13:40 9.6 3:24 14.7 57.7 50.1 41.5 4.0 99.3 11.2 0.0 3.1
18-11-2021 322 17.3 13:20 8.1 5:14 12.9 70.4 54.4 42.8 2.8 95.2 10.9 0.0 2.4
17-11-2021 321 17.9 15:16 2.1 4:34 9.9 85.3 56.6 29.1 1.2 94.1 12.4 0.0 1.7
16-11-2021 320 16.1 14:06 2.2 5:00 8.5 82.7 57.3 31.5 1.2 96.8 12.2 0.0 1.6
15-11-2021 319 16.4 13:56 5.5 6:46 10.7 78.0 53.6 34.4 1.3 83.0 12.3 0.0 1.7
14-11-2021 318 20.0 16:08 5.6 6:28 12.8 81.8 55.3 33.6 1.2 151.3 12.7 0.0 1.8
13-11-2021 317 21.0 15:58 5.1 5:12 13.0 84.1 56.1 31.2 1.2 121.5 12.7 0.0 1.9
12-11-2021 316 20.1 16:20 4.5 5:30 11.3 80.0 57.1 32.1 1.2 112.6 12.7 0.0 1.9
11-11-2021 315 17.3 15:52 3.9 6:08 10.5 84.1 59.5 36.6 1.4 131.3 12.0 0.0 1.8
10-11-2021 314 18.7 14:10 4.9 3:38 11.2 83.1 58.1 28.3 1.5 134.9 13.2 0.0 2.1
09-11-2021 313 18.0 16:20 3.1 6:42 10.2 89.8 58.4 33.6 1.1 124.1 13.5 0.0 1.7
08-11-2021 312 17.5 15:44 0.4 5:58 9.0 83.7 58.3 39.3 1.0 92.9 13.6 0.0 1.6
07-11-2021 311 15.7 16:16 0.6 6:10 7.4 83.8 55.0 22.3 1.4 122.4 14.1 0.0 1.9
06-11-2021 310 14.9 15:04 2.4 6:46 8.4 84.5 55.7 32.7 1.3 54.8 13.7 0.0 1.7
05-11-2021 309 13.7 14:38 2.5 6:02 8.1 90.3 62.8 37.5 1.2 84.9 12.6 0.2 1.5
04-11-2021 308 14.8 14:24 4.0 7:12 8.9 91.2 65.8 33.6 1.3 167.1 13.4 0.6 1.7
03-11-2021 307 14.6 14:28 8.9 21:26 12.0 89.8 63.7 42.9 4.0 245.6 11.4 1.6 2.4
02-11-2021 306 17.8 14:40 12.0 6:46 14.5 84.0 68.4 50.5 2.9 264.1 10.7 0.4 2.3
01-11-2021 305 22.4 13:50 16.4 23:56 18.8 99.8 78.3 53.2 4.7 253.6 10.2 1.0 2.8
31-10-2021 304 22.4 14:10 18.0 22:12 19.5 91.8 78.7 61.2 6.0 248.7 7.1 0.6 2.9
30-10-2021 303 22.2 13:48 16.3 5:32 19.6 93.9 69.5 58.9 6.5 240.9 6.8 0.4 2.9
29-10-2021 302 21.7 13:22 12.3 5:12 16.6 99.7 60.8 38.3 1.9 242.2 9.3 0.4 2.3
28-10-2021 301 22.9 13:48 10.3 6:12 15.9 77.5 55.9 33.6 1.5 128.4 14.8 0.0 2.6
27-10-2021 300 23.9 14:30 9.5 6:56 16.3 73.9 50.6 30.9 1.3 102.3 15.3 0.0 2.6
26-10-2021 299 23.7 13:58 11.8 5:38 17.1 69.1 44.1 18.4 1.5 118.6 14.4 0.0 3.0
25-10-2021 298 23.8 15:02 10.3 6:20 16.2 72.0 48.6 26.2 1.6 116.2 15.2 0.0 3.0
24-10-2021 297 23.3 16:32 9.6 4:22 15.9 78.0 51.2 26.3 1.4 115.5 15.9 0.0 2.8
23-10-2021 296 23.6 15:06 10.7 4:38 16.2 80.0 53.8 30.2 1.5 135.4 16.0 0.0 2.9
22-10-2021 295 23.1 15:14 10.2 7:12 16.4 73.5 52.2 32.7 1.2 198.0 16.1 0.0 2.6
21-10-2021 294 25.3 15:28 12.8 6:30 18.9 65.9 47.6 38.0 1.8 216.2 14.8 0.0 3.2
20-10-2021 293 27.4 14:58 13.7 3:40 19.9 69.6 45.4 28.0 1.5 128.3 15.6 0.0 3.4
19-10-2021 292 28.7 14:00 14.5 6:08 20.8 78.3 51.2 30.5 1.0 111.1 16.2 0.0 3.0
18-10-2021 291 28.1 15:18 15.0 7:06 20.6 64.0 50.4 34.9 1.3 110.0 16.0 0.0 3.3
17-10-2021 290 26.6 16:04 14.8 7:10 20.5 64.0 42.7 26.6 1.5 205.6 14.7 0.0 3.3
16-10-2021 289 26.1 14:38 11.5 4:14 19.3 67.5 43.3 26.2 1.4 201.0 15.2 0.0 3.2
15-10-2021 288 26.1 14:50 12.9 6:00 19.1 72.3 47.5 23.8 1.8 161.7 16.9 0.0 3.7
14-10-2021 287 26.7 15:06 11.4 6:18 18.9 70.2 45.2 20.0 1.5 125.1 17.5 0.0 3.6
13-10-2021 286 27.4 14:54 12.4 6:48 19.5 73.7 42.3 17.4 1.2 90.1 18.0 0.0 3.4
12-10-2021 285 27.1 15:40 14.1 5:54 19.8 76.3 51.1 25.3 1.2 165.6 16.6 0.0 3.3
11-10-2021 284 28.2 14:54 13.9 5:12 20.2 72.2 48.0 25.6 1.3 132.5 17.2 0.0 3.5
10-10-2021 283 28.0 13:42 14.4 6:18 20.7 78.0 50.1 26.2 1.1 102.9 18.1 0.0 3.3
09-10-2021 282 26.1 13:24 13.8 6:36 20.1 74.8 53.2 36.4 1.4 110.7 16.3 0.0 3.3
08-10-2021 281 29.8 15:44 11.3 6:26 20.8 69.8 36.9 14.6 1.4 131.9 18.9 0.0 4.0
07-10-2021 280 29.4 14:50 14.4 6:12 21.1 84.1 52.6 22.0 1.4 121.7 19.1 0.0 4.0
06-10-2021 279 29.1 14:56 11.4 6:04 20.5 79.8 49.9 27.3 1.3 108.3 19.1 0.0 3.8
05-10-2021 278 25.4 16:44 8.6 3:50 16.7 81.7 51.0 24.0 1.1 119.8 18.7 0.0 3.2
04-10-2021 277 21.5 15:24 9.5 7:16 14.4 86.8 57.9 27.1 1.2 153.3 15.8 0.0 2.8
03-10-2021 276 23.3 11:32 13.0 --:-- 17.4 99.8 65.8 43.0 3.1 259.4 12.2 7.4 3.3
02-10-2021 275 29.2 14:48 15.2 5:16 22.1 64.6 42.8 26.5 2.0 233.9 18.9 0.0 4.7
01-10-2021 274 28.1 15:24 15.0 6:34 21.7 67.9 44.9 28.3 1.7 186.5 16.3 0.0 4.0
30-09-2021 273 30.6 14:56 16.7 6:30 23.0 56.8 36.4 21.8 1.6 123.3 17.4 0.0 4.5
29-09-2021 272 31.0 15:42 14.8 4:38 22.6 60.8 36.4 18.5 1.3 105.9 19.8 0.0 4.3
28-09-2021 271 29.4 15:12 14.7 5:20 22.0 57.6 37.5 21.1 1.9 210.2 19.9 0.0 4.9
27-09-2021 270 29.6 15:26 15.4 6:14 22.1 63.5 40.3 21.4 1.4 130.9 20.2 0.0 4.4
26-09-2021 269 28.2 16:28 13.1 5:58 20.5 84.1 51.2 25.3 1.3 131.2 20.1 0.0 4.0
25-09-2021 268 24.5 13:26 15.6 23:34 19.7 77.8 60.8 40.7 1.8 273.6 12.5 0.0 3.2
24-09-2021 267 27.6 14:30 18.8 23:54 21.6 83.9 66.5 43.2 1.6 273.9 9.6 0.2 3.0
23-09-2021 266 29.8 14:14 15.2 5:10 22.1 80.5 55.7 32.6 1.8 138.3 16.9 0.0 4.3
22-09-2021 265 26.9 11:52 14.3 5:22 20.2 80.4 58.8 33.7 1.5 136.9 16.6 0.4 3.7
21-09-2021 264 28.2 13:08 14.8 6:16 19.6 80.3 53.7 33.7 1.6 114.6 14.9 0.0 3.9
20-09-2021 263 30.2 15:30 14.5 4:54 22.7 57.4 31.4 12.5 1.4 244.3 21.6 0.0 4.7
19-09-2021 262 30.8 15:10 14.6 5:22 22.9 75.8 40.8 19.2 1.4 93.5 21.6 0.0 4.7
18-09-2021 261 29.6 14:36 17.4 6:10 23.3 73.6 47.4 25.8 1.8 239.7 21.1 0.0 4.9
17-09-2021 260 29.9 14:54 15.7 6:04 22.9 82.6 51.2 28.2 1.8 208.8 21.5 0.0 4.9
16-09-2021 259 27.7 16:00 15.0 5:10 21.1 95.2 63.5 36.3 1.6 201.6 20.7 0.0 4.2
15-09-2021 258 24.3 14:22 16.6 6:24 20.1 99.8 77.9 56.1 1.6 257.8 14.1 0.0 2.9
14-09-2021 257 23.8 15:38 17.4 23:40 19.8 99.8 87.1 54.6 1.3 198.6 6.6 6.8 2.0
13-09-2021 256 29.0 10:12 19.4 19:52 24.2 96.5 50.2 22.2 1.9 119.4 8.4 2.0 3.6
12-09-2021 255 35.6 15:14 18.6 6:16 27.0 51.8 32.2 15.7 1.4 107.0 22.1 0.0 5.6
11-09-2021 254 32.6 14:22 17.7 6:10 25.4 53.3 34.5 20.4 1.7 111.4 21.1 0.0 5.5
10-09-2021 253 31.2 15:36 17.4 6:10 24.3 79.5 45.3 23.4 1.7 250.0 22.6 0.0 5.3
09-09-2021 252 28.5 14:48 18.2 5:06 22.7 68.8 51.3 32.7 2.2 261.5 19.3 0.0 5.0
08-09-2021 251 28.8 16:08 17.8 6:14 23.3 84.0 53.8 32.4 2.9 268.7 21.6 0.0 5.6
07-09-2021 250 34.5 15:52 23.3 6:00 28.0 48.3 33.9 26.3 2.3 267.4 21.6 0.0 6.7
06-09-2021 249 37.0 14:56 24.0 23:46 30.1 41.3 27.6 14.4 1.6 97.1 13.6 0.0 5.4
05-09-2021 248 36.3 14:56 19.8 6:02 27.9 54.7 34.3 19.6 1.4 87.6 23.6 0.0 5.9
04-09-2021 247 34.1 15:50 18.0 5:50 26.2 50.5 32.6 19.7 1.4 89.2 23.7 0.0 5.6
03-09-2021 246 31.8 15:54 17.4 5:28 24.8 62.5 38.5 20.4 1.7 276.7 24.1 0.0 5.7
02-09-2021 245 31.2 15:48 18.2 5:48 24.3 67.2 45.8 26.6 2.0 262.9 23.0 0.0 5.8
01-09-2021 244 31.4 12:56 21.3 6:48 25.7 64.6 48.2 32.7 1.9 291.2 19.3 0.0 5.3
31-08-2021 243 34.5 14:06 18.6 5:46 26.7 59.2 39.3 20.8 1.8 336.4 22.4 0.0 6.1
30-08-2021 242 31.7 15:50 16.8 6:08 24.4 78.1 45.9 23.5 1.7 267.1 24.3 0.0 5.7
29-08-2021 241 31.0 14:58 18.1 5:52 24.1 82.0 53.6 33.7 2.4 276.4 23.8 0.0 5.9
28-08-2021 240 32.5 15:44 16.8 6:00 25.0 70.2 42.3 20.7 2.6 275.9 24.7 0.0 6.9
27-08-2021 239 36.1 15:42 20.0 5:52 28.2 73.5 40.0 15.2 2.1 276.1 24.4 0.0 7.0
26-08-2021 238 34.5 16:10 20.3 5:42 27.4 79.5 45.4 20.3 1.3 284.9 24.6 0.0 5.8
25-08-2021 237 32.1 16:20 17.3 2:08 24.8 99.8 64.6 37.0 1.7 297.5 22.2 4.6 5.2
24-08-2021 236 35.2 14:26 21.6 6:10 28.3 76.4 47.3 26.7 2.4 284.1 21.9 0.0 6.7
23-08-2021 235 35.1 13:32 21.3 6:58 28.4 90.3 42.2 26.3 1.4 221.7 15.8 1.0 4.7
22-08-2021 234 39.6 14:06 21.8 5:22 29.6 45.1 29.4 14.3 1.3 88.9 16.5 0.0 5.7
21-08-2021 233 36.5 16:00 21.0 5:26 28.8 53.8 34.4 12.6 1.3 242.6 21.4 0.0 5.8
20-08-2021 232 35.1 15:28 21.3 5:36 28.0 59.7 40.0 23.3 1.6 290.6 24.7 0.0 6.3
19-08-2021 231 35.0 15:24 21.1 6:12 27.8 71.7 43.6 21.4 2.1 274.2 24.1 0.0 6.8
18-08-2021 230 35.1 15:24 20.7 5:56 28.1 73.2 43.9 20.2 2.2 274.1 24.6 0.0 7.0
17-08-2021 229 36.8 13:28 21.3 3:52 29.2 43.1 21.1 9.5 2.5 262.7 25.7 0.0 8.3
16-08-2021 228 41.6 15:36 25.1 5:40 33.4 27.4 13.7 3.4 2.6 219.3 25.1 0.0 9.4
15-08-2021 227 43.1 13:32 26.6 4:46 35.0 26.5 16.8 7.7 2.2 226.8 24.6 0.0 8.7
14-08-2021 226 45.1 14:42 24.7 6:30 35.1 37.8 17.5 6.7 2.1 145.0 23.7 0.0 8.9
13-08-2021 225 45.5 14:14 24.7 4:30 33.9 40.9 22.3 8.7 2.0 128.9 19.8 1.8 8.6
12-08-2021 224 39.6 16:28 22.9 5:28 30.9 80.0 45.8 20.4 1.4 272.2 24.6 0.0 6.7
11-08-2021 223 38.4 16:06 23.6 5:22 30.3 64.5 42.1 22.4 1.8 264.9 21.2 0.0 6.7
10-08-2021 222 35.2 15:24 22.5 5:54 28.7 67.3 45.8 31.5 1.2 291.2 21.1 0.0 5.4
09-08-2021 221 34.8 16:30 20.2 5:24 27.6 42.9 31.5 19.4 1.4 259.8 24.0 0.0 6.2
08-08-2021 220 34.2 15:56 18.1 5:28 26.0 66.9 37.0 16.8 1.7 272.2 27.0 0.0 6.8
07-08-2021 219 32.6 15:24 21.3 5:52 26.8 47.5 33.0 17.0 3.2 260.3 27.0 0.0 8.4
06-08-2021 218 37.0 16:18 21.5 5:18 29.8 39.5 23.9 12.8 2.3 257.0 26.9 0.0 8.2
05-08-2021 217 36.8 16:02 21.1 5:24 29.5 43.4 25.8 9.8 2.0 238.8 27.2 0.0 7.7
04-08-2021 216 34.8 16:00 20.7 6:24 27.9 54.8 33.2 16.9 2.1 258.1 26.9 0.0 7.4
03-08-2021 215 33.5 14:32 18.8 4:52 26.4 57.8 33.6 16.3 1.7 273.6 26.8 0.0 6.7
02-08-2021 214 32.1 16:36 16.5 6:10 24.3 40.4 25.1 14.2 1.3 193.0 21.8 0.0 5.6
01-08-2021 213 30.8 14:38 17.3 6:08 23.8 46.9 28.3 11.4 2.5 258.6 25.9 0.0 7.4
31-07-2021 212 30.2 15:58 20.7 5:44 25.2 51.4 32.9 18.8 3.8 265.8 26.0 0.0 8.3
30-07-2021 211 36.8 14:18 22.7 5:34 29.4 71.1 38.4 14.9 2.9 268.5 27.0 0.0 8.8
29-07-2021 210 37.9 15:24 21.3 5:20 30.0 55.5 33.2 17.9 2.2 283.6 27.2 0.0 8.1
28-07-2021 209 37.6 14:58 22.1 6:02 30.0 48.8 32.1 20.3 1.5 294.6 27.2 0.0 7.1
27-07-2021 208 35.3 15:02 20.6 5:22 28.2 61.7 41.0 24.7 1.7 293.8 27.2 0.0 7.0
26-07-2021 207 32.6 17:10 21.9 6:02 26.9 57.8 43.0 28.2 2.2 272.1 26.2 0.0 7.0
25-07-2021 206 33.5 16:14 20.1 6:04 27.2 47.5 27.3 15.0 2.7 258.3 27.2 0.0 8.1
24-07-2021 205 35.7 16:26 22.3 5:04 28.9 33.0 21.0 10.6 2.8 253.3 27.4 0.0 9.0
23-07-2021 204 37.6 14:40 23.5 4:44 30.7 37.2 24.5 16.9 2.2 260.5 25.4 0.0 8.1
22-07-2021 203 39.9 16:38 20.6 5:24 31.4 36.7 20.3 11.8 1.5 265.2 27.8 0.0 7.5
21-07-2021 202 37.6 16:22 20.1 5:14 28.9 37.2 22.2 12.2 1.6 49.6 28.3 0.0 7.5
20-07-2021 201 34.4 15:20 18.9 5:58 26.7 56.0 31.3 14.6 2.2 269.8 27.8 0.0 7.8
19-07-2021 200 36.8 15:34 20.8 5:40 28.6 47.6 30.6 14.9 2.3 291.8 27.7 0.0 8.4
18-07-2021 199 37.8 15:46 21.5 6:06 29.6 46.1 29.2 14.0 2.6 276.5 27.8 0.0 9.0
17-07-2021 198 38.5 15:18 22.0 4:42 30.5 46.1 28.1 13.3 2.3 260.7 27.9 0.0 8.7
16-07-2021 197 38.2 15:18 20.4 5:08 29.6 49.4 30.1 16.3 1.3 3.8 28.3 0.0 7.1
15-07-2021 196 36.2 16:34 20.2 5:54 28.0 51.8 31.8 16.6 1.4 306.4 27.9 0.0 7.0
14-07-2021 195 34.8 15:56 17.2 4:16 26.7 45.5 24.1 10.9 1.2 84.7 28.8 0.0 6.6
13-07-2021 194 32.2 16:00 16.2 5:12 24.8 43.5 23.8 12.7 1.4 51.0 29.2 0.0 6.6
12-07-2021 193 33.4 16:12 21.3 23:50 28.0 57.0 30.1 10.2 4.0 275.3 28.4 0.0 9.6
11-07-2021 192 39.8 13:30 24.9 5:22 32.7 39.2 24.6 13.4 2.5 239.7 21.8 0.0 8.5
10-07-2021 191 40.7 16:20 21.3 5:56 31.1 57.2 31.5 16.2 1.3 107.3 25.1 0.0 7.0
09-07-2021 190 37.4 16:14 20.7 3:42 28.9 63.7 38.1 19.3 1.1 65.9 27.2 0.0 6.6
08-07-2021 189 34.9 16:06 16.6 5:12 26.4 48.6 25.0 12.8 1.4 76.4 29.5 0.0 7.0
07-07-2021 188 31.3 15:58 20.7 5:32 25.3 61.8 34.9 12.8 2.7 268.1 28.8 0.0 8.0
06-07-2021 187 33.3 16:02 20.5 5:22 26.8 59.4 40.2 18.0 3.0 269.8 28.9 0.0 8.5
05-07-2021 186 37.2 15:12 20.7 5:22 29.3 46.0 28.7 17.3 2.6 247.7 29.3 0.0 9.0
04-07-2021 185 34.7 15:48 21.6 5:20 28.1 55.1 33.2 14.7 2.8 252.7 29.1 0.0 8.8
03-07-2021 184 35.9 15:26 19.2 5:44 28.1 44.9 26.0 12.8 2.2 277.6 29.4 0.0 8.3
02-07-2021 183 36.7 14:34 19.7 5:16 28.5 60.3 30.7 8.0 2.3 272.9 29.7 0.0 8.6
01-07-2021 182 35.7 16:14 19.2 5:22 27.9 54.2 34.2 19.3 2.1 290.7 29.0 0.0 7.9
30-06-2021 181 36.0 15:40 17.6 5:10 27.5 45.7 26.8 12.8 2.0 268.1 29.5 0.0 8.0
29-06-2021 180 33.2 16:30 15.8 5:22 25.3 46.3 25.3 9.1 1.9 251.9 30.2 0.0 7.6
28-06-2021 179 31.8 16:14 18.2 5:42 24.7 56.0 30.3 9.2 2.7 263.7 29.6 0.0 8.3
27-06-2021 178 32.8 14:04 19.1 5:32 25.9 73.8 42.3 20.5 3.1 268.7 29.1 0.0 8.3
26-06-2021 177 34.8 15:46 18.4 5:18 26.9 59.3 37.3 17.0 2.2 285.9 28.8 0.0 7.9
25-06-2021 176 35.7 15:24 17.5 5:22 27.1 63.0 36.5 17.4 1.7 288.3 29.2 0.0 7.4
24-06-2021 175 33.5 16:28 17.0 3:48 25.9 64.8 38.2 21.3 1.4 20.2 29.3 0.0 6.7
23-06-2021 174 30.2 16:32 15.0 4:24 22.5 70.9 42.7 16.8 1.6 267.7 29.7 0.0 6.6
22-06-2021 173 27.8 14:54 14.1 4:58 21.2 71.5 45.3 25.6 2.0 261.9 29.7 0.0 6.4
21-06-2021 172 25.8 15:04 16.0 5:22 21.0 80.0 50.2 28.9 2.8 260.2 29.0 0.0 6.4
20-06-2021 171 26.0 16:08 14.4 1:16 19.3 77.3 59.0 34.6 3.4 267.8 25.1 0.0 6.2
19-06-2021 170 21.8 15:34 14.0 4:58 16.5 79.2 66.7 44.7 1.5 271.3 10.6 1.2 2.9
18-06-2021 169 27.4 15:16 16.4 23:54 20.7 82.6 60.8 40.2 2.6 285.9 25.3 0.0 5.8
17-06-2021 168 25.2 15:14 16.0 00:44 19.5 95.0 70.7 42.1 2.4 284.5 21.0 0.0 4.7
16-06-2021 167 31.7 16:02 16.2 23:16 23.0 99.0 59.3 34.1 2.6 288.0 22.0 17.6 6.1
15-06-2021 166 36.8 14:42 19.4 5:02 27.6 68.6 41.6 14.1 1.6 1.2 23.8 0.0 6.9
14-06-2021 165 35.3 14:56 19.2 5:02 27.8 63.5 39.2 22.3 1.7 291.6 27.5 0.0 7.1
13-06-2021 164 35.4 13:12 18.6 4:30 27.5 59.0 34.7 16.9 1.9 202.8 26.4 0.0 7.3
12-06-2021 163 35.0 14:02 20.9 3:26 27.6 53.5 30.2 16.9 2.7 108.7 23.9 0.0 8.1
11-06-2021 162 35.4 14:52 19.9 4:56 28.0 47.8 31.1 18.2 2.2 289.7 27.9 0.0 8.0
10-06-2021 161 36.9 15:40 19.7 5:20 28.8 46.7 26.7 10.4 2.0 286.6 29.0 0.0 8.2
09-06-2021 160 36.4 14:42 18.8 5:14 28.2 50.6 28.4 14.5 1.6 296.4 28.5 0.0 7.4
08-06-2021 159 36.0 15:40 18.4 4:48 28.0 51.7 29.1 13.0 1.7 311.7 29.7 0.0 7.6
07-06-2021 158 34.3 16:24 16.7 4:50 26.2 68.3 37.8 15.8 1.5 82.2 29.5 0.0 7.0
06-06-2021 157 30.9 15:48 12.5 4:56 21.9 94.0 54.0 20.2 1.3 91.1 29.1 0.0 6.1
05-06-2021 156 25.4 15:52 14.4 23:52 18.5 99.9 74.9 41.6 1.5 147.8 11.7 7.6 3.2
04-06-2021 155 29.8 14:56 17.8 5:20 21.8 75.0 58.5 34.6 1.9 284.4 20.1 1.6 5.4
03-06-2021 154 31.3 15:46 16.6 5:54 23.8 61.8 41.3 24.0 2.1 298.2 28.2 0.0 7.0
02-06-2021 153 30.9 16:00 11.9 5:16 22.2 70.1 40.3 21.0 1.9 274.1 28.8 0.0 6.7
01-06-2021 152 25.9 15:32 16.4 9:24 20.0 79.8 56.2 31.9 3.1 271.5 19.6 0.0 5.5
31-05-2021 151 33.3 16:06 17.8 5:12 25.1 70.8 43.4 23.3 2.0 204.1 18.3 0.0 6.0
30-05-2021 150 32.0 13:42 18.3 5:40 25.3 66.5 43.9 29.6 1.3 348.9 19.1 0.0 5.0
29-05-2021 149 33.3 15:34 17.8 5:42 25.2 66.2 42.9 23.7 1.5 276.5 28.6 0.0 6.7
28-05-2021 148 29.8 16:28 13.7 5:06 21.6 95.0 57.3 30.2 1.1 86.0 26.8 0.0 5.4
27-05-2021 147 27.9 13:46 14.9 22:06 19.8 87.4 53.8 24.7 1.1 94.3 13.2 0.0 3.7
26-05-2021 146 30.9 15:12 14.6 5:04 23.1 52.9 34.0 18.9 1.4 47.7 27.8 0.0 6.2
25-05-2021 145 31.5 16:18 12.0 5:06 22.2 62.2 37.5 16.5 1.2 81.9 28.7 0.0 6.1